Terminal Aerodrome Forecast
Issued by NWS Sterling, VA

Current Version | Previous Version | Text Only | Print | Product List | Glossary Off
Versions: 1 2 3 4 5 6 7 8 9 10 11 12 13 14 15 16 17 18 19 20 21 22 23 24 25 26 27 28 29

887
FTUS41 KLWX 301137
TAFIAD
TAF
KIAD 301137Z 3012/0118 VRB04KT 1SM -SHRA BR OVC003
     FM301400 16008KT 2SM BR OVC005
     FM301700 19012KT P6SM OVC007
     FM302000 19012KT 4SM BR OVC012
     FM302200 20011KT 2SM SHRA OVC005
     FM010300 24010KT 6SM -SHRA BKN015
     FM010700 27009KT P6SM SCT110
     FM011500 28013G20KT P6SM SCT250=

USA.gov is the U.S. government's official web portal to all federal, state and local government web resources and services.